sensor_id;sensor_type;location;lat;lon;timestamp;P1;durP1;ratioP1;P2;durP2;ratioP2
13347;SDS011;6743;49.934;9.138;2022-08-20T00:01:04;2.80;;;2.60;;
13347;SDS011;6743;49.934;9.138;2022-08-20T00:03:32;2.90;;;2.62;;
13347;SDS011;6743;49.934;9.138;2022-08-20T00:06:00;2.90;;;2.60;;
13347;SDS011;6743;49.934;9.138;2022-08-20T00:08:29;2.80;;;2.60;;
13347;SDS011;6743;49.934;9.138;2022-08-20T00:10:56;2.40;;;2.30;;
13347;SDS011;6743;49.934;9.138;2022-08-20T00:13:25;2.70;;;2.50;;
13347;SDS011;6743;49.934;9.138;2022-08-20T00:15:52;2.25;;;2.15;;
13347;SDS011;6743;49.934;9.138;2022-08-20T00:18:19;2.92;;;2.72;;
13347;SDS011;6743;49.934;9.138;2022-08-20T00:20:47;2.97;;;2.78;;
13347;SDS011;6743;49.934;9.138;2022-08-20T00:23:15;3.12;;;2.83;;
13347;SDS011;6743;49.934;9.138;2022-08-20T00:25:45;2.58;;;2.37;;
13347;SDS011;6743;49.934;9.138;2022-08-20T00:28:11;2.60;;;2.40;;
13347;SDS011;6743;49.934;9.138;2022-08-20T00:30:38;2.90;;;2.70;;
13347;SDS011;6743;49.934;9.138;2022-08-20T00:33:07;2.85;;;2.65;;
13347;SDS011;6743;49.934;9.138;2022-08-20T00:35:36;2.60;;;2.40;;
13347;SDS011;6743;49.934;9.138;2022-08-20T00:38:04;2.97;;;2.78;;
13347;SDS011;6743;49.934;9.138;2022-08-20T00:40:31;2.97;;;2.78;;
13347;SDS011;6743;49.934;9.138;2022-08-20T00:43:03;2.45;;;2.25;;
13347;SDS011;6743;49.934;9.138;2022-08-20T00:45:32;3.30;;;2.90;;
13347;SDS011;6743;49.934;9.138;2022-08-20T00:47:59;2.37;;;2.20;;
13347;SDS011;6743;49.934;9.138;2022-08-20T00:50:27;2.40;;;2.20;;
13347;SDS011;6743;49.934;9.138;2022-08-20T00:52:58;2.60;;;2.40;;
13347;SDS011;6743;49.934;9.138;2022-08-20T00:55:26;2.47;;;2.30;;
13347;SDS011;6743;49.934;9.138;2022-08-20T00:57:55;3.00;;;2.80;;
13347;SDS011;6743;49.934;9.138;2022-08-20T01:00:26;2.83;;;2.62;;
13347;SDS011;6743;49.934;9.138;2022-08-20T01:02:54;3.30;;;3.00;;
13347;SDS011;6743;49.934;9.138;2022-08-20T01:05:21;2.20;;;2.10;;
13347;SDS011;6743;49.934;9.138;2022-08-20T01:07:49;2.60;;;2.40;;
13347;SDS011;6743;49.934;9.138;2022-08-20T01:10:20;3.10;;;2.90;;
13347;SDS011;6743;49.934;9.138;2022-08-20T01:12:48;2.60;;;2.40;;
13347;SDS011;6743;49.934;9.138;2022-08-20T01:15:17;2.87;;;2.67;;
13347;SDS011;6743;49.934;9.138;2022-08-20T01:17:50;2.90;;;2.70;;
13347;SDS011;6743;49.934;9.138;2022-08-20T01:20:20;2.50;;;2.30;;
13347;SDS011;6743;49.934;9.138;2022-08-20T01:22:52;2.55;;;2.35;;
13347;SDS011;6743;49.934;9.138;2022-08-20T01:25:43;2.72;;;2.53;;
13347;SDS011;6743;49.934;9.138;2022-08-20T01:28:11;2.60;;;2.40;;
13347;SDS011;6743;49.934;9.138;2022-08-20T01:30:39;2.85;;;2.65;;
13347;SDS011;6743;49.934;9.138;2022-08-20T01:33:06;2.90;;;2.70;;
13347;SDS011;6743;49.934;9.138;2022-08-20T01:35:34;2.40;;;2.28;;
13347;SDS011;6743;49.934;9.138;2022-08-20T01:38:01;2.85;;;2.65;;
13347;SDS011;6743;49.934;9.138;2022-08-20T01:40:34;2.97;;;2.75;;
13347;SDS011;6743;49.934;9.138;2022-08-20T01:43:19;2.85;;;2.65;;
13347;SDS011;6743;49.934;9.138;2022-08-20T01:45:45;2.78;;;2.58;;
13347;SDS011;6743;49.934;9.138;2022-08-20T01:48:11;2.75;;;2.55;;
13347;SDS011;6743;49.934;9.138;2022-08-20T01:50:39;2.55;;;2.35;;
13347;SDS011;6743;49.934;9.138;2022-08-20T01:53:16;2.83;;;2.62;;
13347;SDS011;6743;49.934;9.138;2022-08-20T01:55:46;2.75;;;2.55;;
13347;SDS011;6743;49.934;9.138;2022-08-20T01:58:12;2.35;;;2.17;;
13347;SDS011;6743;49.934;9.138;2022-08-20T02:00:39;2.12;;;2.03;;
13347;SDS011;6743;49.934;9.138;2022-08-20T02:03:13;2.70;;;2.50;;
13347;SDS011;6743;49.934;9.138;2022-08-20T02:05:41;2.22;;;2.05;;
13347;SDS011;6743;49.934;9.138;2022-08-20T02:08:10;2.65;;;2.45;;
13347;SDS011;6743;49.934;9.138;2022-08-20T02:10:36;2.58;;;2.37;;
13347;SDS011;6743;49.934;9.138;2022-08-20T02:13:02;2.15;;;2.05;;
13347;SDS011;6743;49.934;9.138;2022-08-20T02:15:29;2.40;;;2.20;;
13347;SDS011;6743;49.934;9.138;2022-08-20T02:17:56;3.25;;;2.95;;
13347;SDS011;6743;49.934;9.138;2022-08-20T02:20:26;2.58;;;2.37;;
13347;SDS011;6743;49.934;9.138;2022-08-20T02:22:55;2.60;;;2.40;;
13347;SDS011;6743;49.934;9.138;2022-08-20T02:25:25;2.30;;;2.20;;
13347;SDS011;6743;49.934;9.138;2022-08-20T02:27:53;2.83;;;2.62;;
13347;SDS011;6743;49.934;9.138;2022-08-20T02:30:22;2.92;;;2.58;;
13347;SDS011;6743;49.934;9.138;2022-08-20T02:32:51;2.72;;;2.53;;
13347;SDS011;6743;49.934;9.138;2022-08-20T02:35:18;2.60;;;2.40;;
13347;SDS011;6743;49.934;9.138;2022-08-20T02:37:45;2.62;;;2.42;;
13347;SDS011;6743;49.934;9.138;2022-08-20T02:40:12;2.87;;;2.67;;
13347;SDS011;6743;49.934;9.138;2022-08-20T02:42:40;2.55;;;2.35;;
13347;SDS011;6743;49.934;9.138;2022-08-20T02:45:08;3.30;;;3.00;;
13347;SDS011;6743;49.934;9.138;2022-08-20T02:47:35;2.65;;;2.45;;
13347;SDS011;6743;49.934;9.138;2022-08-20T02:50:03;2.60;;;2.40;;
13347;SDS011;6743;49.934;9.138;2022-08-20T02:52:31;2.90;;;2.70;;
13347;SDS011;6743;49.934;9.138;2022-08-20T02:54:57;2.70;;;2.50;;
13347;SDS011;6743;49.934;9.138;2022-08-20T02:57:23;2.67;;;2.35;;
13347;SDS011;6743;49.934;9.138;2022-08-20T02:59:49;2.85;;;2.58;;
13347;SDS011;6743;49.934;9.138;2022-08-20T03:02:16;3.00;;;2.75;;
13347;SDS011;6743;49.934;9.138;2022-08-20T03:04:43;2.87;;;2.67;;
13347;SDS011;6743;49.934;9.138;2022-08-20T03:07:09;2.58;;;2.37;;
13347;SDS011;6743;49.934;9.138;2022-08-20T03:09:37;2.47;;;2.28;;
13347;SDS011;6743;49.934;9.138;2022-08-20T03:12:04;2.47;;;2.28;;
13347;SDS011;6743;49.934;9.138;2022-08-20T03:14:32;2.85;;;2.60;;
13347;SDS011;6743;49.934;9.138;2022-08-20T03:16:58;2.85;;;2.65;;
13347;SDS011;6743;49.934;9.138;2022-08-20T03:19:24;2.70;;;2.42;;
13347;SDS011;6743;49.934;9.138;2022-08-20T03:21:51;2.87;;;2.67;;
13347;SDS011;6743;49.934;9.138;2022-08-20T03:24:17;2.22;;;2.10;;
13347;SDS011;6743;49.934;9.138;2022-08-20T03:26:44;2.75;;;2.50;;
13347;SDS011;6743;49.934;9.138;2022-08-20T03:29:10;2.42;;;2.25;;
13347;SDS011;6743;49.934;9.138;2022-08-20T03:31:36;2.90;;;2.70;;
13347;SDS011;6743;49.934;9.138;2022-08-20T03:34:02;3.15;;;2.90;;
13347;SDS011;6743;49.934;9.138;2022-08-20T03:36:29;2.62;;;2.42;;
13347;SDS011;6743;49.934;9.138;2022-08-20T03:38:55;2.80;;;2.60;;
13347;SDS011;6743;49.934;9.138;2022-08-20T03:41:23;2.87;;;2.65;;
13347;SDS011;6743;49.934;9.138;2022-08-20T03:43:51;2.45;;;2.28;;
13347;SDS011;6743;49.934;9.138;2022-08-20T03:46:17;3.22;;;2.80;;
13347;SDS011;6743;49.934;9.138;2022-08-20T03:48:43;2.67;;;2.47;;
13347;SDS011;6743;49.934;9.138;2022-08-20T03:51:09;2.42;;;2.28;;
13347;SDS011;6743;49.934;9.138;2022-08-20T03:53:35;2.20;;;2.10;;
13347;SDS011;6743;49.934;9.138;2022-08-20T03:56:03;2.72;;;2.53;;
13347;SDS011;6743;49.934;9.138;2022-08-20T03:58:30;2.08;;;1.98;;
13347;SDS011;6743;49.934;9.138;2022-08-20T04:00:58;2.53;;;2.35;;
13347;SDS011;6743;49.934;9.138;2022-08-20T04:03:25;2.70;;;2.40;;
13347;SDS011;6743;49.934;9.138;2022-08-20T04:05:51;2.85;;;2.40;;
13347;SDS011;6743;49.934;9.138;2022-08-20T04:08:18;2.55;;;2.35;;
13347;SDS011;6743;49.934;9.138;2022-08-20T04:10:46;2.33;;;2.15;;
13347;SDS011;6743;49.934;9.138;2022-08-20T04:13:14;2.85;;;2.40;;
13347;SDS011;6743;49.934;9.138;2022-08-20T04:15:41;2.45;;;2.25;;
13347;SDS011;6743;49.934;9.138;2022-08-20T04:18:10;2.60;;;2.40;;
13347;SDS011;6743;49.934;9.138;2022-08-20T04:20:38;2.92;;;2.72;;
13347;SDS011;6743;49.934;9.138;2022-08-20T04:23:06;2.78;;;2.58;;
13347;SDS011;6743;49.934;9.138;2022-08-20T04:25:33;2.50;;;2.30;;
13347;SDS011;6743;49.934;9.138;2022-08-20T04:28:00;2.92;;;2.72;;
13347;SDS011;6743;49.934;9.138;2022-08-20T04:30:29;3.22;;;2.92;;
13347;SDS011;6743;49.934;9.138;2022-08-20T04:32:57;2.20;;;2.10;;
13347;SDS011;6743;49.934;9.138;2022-08-20T04:35:24;3.22;;;2.87;;
13347;SDS011;6743;49.934;9.138;2022-08-20T04:37:56;2.25;;;2.12;;
13347;SDS011;6743;49.934;9.138;2022-08-20T04:40:23;2.67;;;2.47;;
13347;SDS011;6743;49.934;9.138;2022-08-20T04:43:08;2.50;;;2.30;;
13347;SDS011;6743;49.934;9.138;2022-08-20T04:45:34;2.53;;;2.35;;
13347;SDS011;6743;49.934;9.138;2022-08-20T04:48:00;2.90;;;2.60;;
13347;SDS011;6743;49.934;9.138;2022-08-20T04:50:30;2.50;;;2.30;;
13347;SDS011;6743;49.934;9.138;2022-08-20T04:52:59;3.08;;;2.78;;
13347;SDS011;6743;49.934;9.138;2022-08-20T04:55:25;3.08;;;2.83;;
13347;SDS011;6743;49.934;9.138;2022-08-20T04:57:51;4.30;;;2.47;;
13347;SDS011;6743;49.934;9.138;2022-08-20T05:00:19;2.72;;;2.53;;
13347;SDS011;6743;49.934;9.138;2022-08-20T05:02:45;2.78;;;2.53;;
13347;SDS011;6743;49.934;9.138;2022-08-20T05:05:11;2.60;;;2.40;;
13347;SDS011;6743;49.934;9.138;2022-08-20T05:07:39;2.70;;;2.50;;
13347;SDS011;6743;49.934;9.138;2022-08-20T05:10:07;2.85;;;2.60;;
13347;SDS011;6743;49.934;9.138;2022-08-20T05:12:34;2.17;;;2.05;;
13347;SDS011;6743;49.934;9.138;2022-08-20T05:15:00;2.65;;;2.45;;
13347;SDS011;6743;49.934;9.138;2022-08-20T05:17:27;2.03;;;1.92;;
13347;SDS011;6743;49.934;9.138;2022-08-20T05:19:53;2.83;;;2.58;;
13347;SDS011;6743;49.934;9.138;2022-08-20T05:22:19;2.50;;;2.30;;
13347;SDS011;6743;49.934;9.138;2022-08-20T05:24:47;2.67;;;2.47;;
13347;SDS011;6743;49.934;9.138;2022-08-20T05:27:13;2.70;;;2.50;;
13347;SDS011;6743;49.934;9.138;2022-08-20T05:29:40;2.42;;;2.22;;
13347;SDS011;6743;49.934;9.138;2022-08-20T05:32:06;2.20;;;2.10;;
13347;SDS011;6743;49.934;9.138;2022-08-20T05:34:32;2.42;;;2.22;;
13347;SDS011;6743;49.934;9.138;2022-08-20T05:36:58;3.35;;;2.37;;
13347;SDS011;6743;49.934;9.138;2022-08-20T05:39:28;2.85;;;2.62;;
13347;SDS011;6743;49.934;9.138;2022-08-20T05:41:55;2.67;;;2.47;;
13347;SDS011;6743;49.934;9.138;2022-08-20T05:44:22;2.80;;;2.60;;
13347;SDS011;6743;49.934;9.138;2022-08-20T05:46:48;2.50;;;2.30;;
13347;SDS011;6743;49.934;9.138;2022-08-20T05:49:15;2.42;;;2.33;;
13347;SDS011;6743;49.934;9.138;2022-08-20T05:51:43;2.50;;;2.30;;
13347;SDS011;6743;49.934;9.138;2022-08-20T05:54:09;3.10;;;2.53;;
13347;SDS011;6743;49.934;9.138;2022-08-20T05:56:36;3.05;;;2.75;;
13347;SDS011;6743;49.934;9.138;2022-08-20T05:59:04;2.45;;;2.25;;
13347;SDS011;6743;49.934;9.138;2022-08-20T06:01:32;2.22;;;2.12;;
13347;SDS011;6743;49.934;9.138;2022-08-20T06:04:00;2.10;;;1.90;;
13347;SDS011;6743;49.934;9.138;2022-08-20T06:06:44;2.37;;;2.20;;
13347;SDS011;6743;49.934;9.138;2022-08-20T06:09:11;2.40;;;2.20;;
13347;SDS011;6743;49.934;9.138;2022-08-20T06:11:37;2.12;;;1.92;;
13347;SDS011;6743;49.934;9.138;2022-08-20T06:14:04;2.60;;;2.40;;
13347;SDS011;6743;49.934;9.138;2022-08-20T06:16:30;2.75;;;2.55;;
13347;SDS011;6743;49.934;9.138;2022-08-20T06:18:56;2.70;;;2.50;;
13347;SDS011;6743;49.934;9.138;2022-08-20T06:21:22;3.30;;;3.00;;
13347;SDS011;6743;49.934;9.138;2022-08-20T06:23:48;2.87;;;2.65;;
13347;SDS011;6743;49.934;9.138;2022-08-20T06:26:14;2.47;;;2.35;;
13347;SDS011;6743;49.934;9.138;2022-08-20T06:28:40;3.00;;;2.70;;
13347;SDS011;6743;49.934;9.138;2022-08-20T06:31:07;2.90;;;2.70;;
13347;SDS011;6743;49.934;9.138;2022-08-20T06:33:35;2.53;;;2.40;;
13347;SDS011;6743;49.934;9.138;2022-08-20T06:36:01;2.80;;;2.60;;
13347;SDS011;6743;49.934;9.138;2022-08-20T06:38:28;2.95;;;2.75;;
13347;SDS011;6743;49.934;9.138;2022-08-20T06:40:56;2.50;;;2.30;;
13347;SDS011;6743;49.934;9.138;2022-08-20T06:43:22;2.67;;;2.47;;
13347;SDS011;6743;49.934;9.138;2022-08-20T06:45:51;2.37;;;2.17;;
13347;SDS011;6743;49.934;9.138;2022-08-20T06:48:22;3.15;;;2.58;;
13347;SDS011;6743;49.934;9.138;2022-08-20T06:50:48;2.67;;;2.47;;
13347;SDS011;6743;49.934;9.138;2022-08-20T06:53:16;2.80;;;2.50;;
13347;SDS011;6743;49.934;9.138;2022-08-20T06:55:46;2.60;;;2.40;;
13347;SDS011;6743;49.934;9.138;2022-08-20T06:58:16;2.78;;;2.58;;
13347;SDS011;6743;49.934;9.138;2022-08-20T07:00:42;3.08;;;2.53;;
13347;SDS011;6743;49.934;9.138;2022-08-20T07:03:10;3.17;;;2.87;;
13347;SDS011;6743;49.934;9.138;2022-08-20T07:05:40;2.97;;;2.70;;
13347;SDS011;6743;49.934;9.138;2022-08-20T07:08:08;3.25;;;2.62;;
13347;SDS011;6743;49.934;9.138;2022-08-20T07:10:35;2.62;;;2.42;;
13347;SDS011;6743;49.934;9.138;2022-08-20T07:13:02;2.70;;;2.50;;
13347;SDS011;6743;49.934;9.138;2022-08-20T07:15:28;3.15;;;2.95;;
13347;SDS011;6743;49.934;9.138;2022-08-20T07:17:55;3.00;;;2.78;;
13347;SDS011;6743;49.934;9.138;2022-08-20T07:20:23;2.60;;;2.40;;
13347;SDS011;6743;49.934;9.138;2022-08-20T07:22:50;2.00;;;1.90;;
13347;SDS011;6743;49.934;9.138;2022-08-20T07:25:18;2.20;;;2.00;;
13347;SDS011;6743;49.934;9.138;2022-08-20T07:27:46;2.20;;;2.00;;
13347;SDS011;6743;49.934;9.138;2022-08-20T07:30:14;2.42;;;2.22;;
13347;SDS011;6743;49.934;9.138;2022-08-20T07:33:01;2.15;;;2.03;;
13347;SDS011;6743;49.934;9.138;2022-08-20T07:35:27;2.15;;;2.03;;
13347;SDS011;6743;49.934;9.138;2022-08-20T07:37:54;2.40;;;2.20;;
13347;SDS011;6743;49.934;9.138;2022-08-20T07:40:21;2.40;;;2.20;;
13347;SDS011;6743;49.934;9.138;2022-08-20T07:42:49;2.50;;;2.30;;
13347;SDS011;6743;49.934;9.138;2022-08-20T07:45:16;2.78;;;2.58;;
13347;SDS011;6743;49.934;9.138;2022-08-20T07:47:43;2.40;;;2.20;;
13347;SDS011;6743;49.934;9.138;2022-08-20T07:50:11;2.67;;;2.47;;
13347;SDS011;6743;49.934;9.138;2022-08-20T07:52:39;3.37;;;2.72;;
13347;SDS011;6743;49.934;9.138;2022-08-20T07:55:07;2.50;;;2.30;;
13347;SDS011;6743;49.934;9.138;2022-08-20T07:57:35;2.47;;;2.28;;
13347;SDS011;6743;49.934;9.138;2022-08-20T08:00:02;2.92;;;2.72;;
13347;SDS011;6743;49.934;9.138;2022-08-20T08:02:29;2.90;;;2.67;;
13347;SDS011;6743;49.934;9.138;2022-08-20T08:04:55;3.15;;;2.85;;
13347;SDS011;6743;49.934;9.138;2022-08-20T08:07:21;3.40;;;3.10;;
13347;SDS011;6743;49.934;9.138;2022-08-20T08:09:50;3.58;;;3.28;;
13347;SDS011;6743;49.934;9.138;2022-08-20T08:12:17;4.32;;;3.92;;
13347;SDS011;6743;49.934;9.138;2022-08-20T08:14:45;3.70;;;3.33;;
13347;SDS011;6743;49.934;9.138;2022-08-20T08:17:12;3.55;;;2.85;;
13347;SDS011;6743;49.934;9.138;2022-08-20T08:19:42;3.12;;;2.87;;
13347;SDS011;6743;49.934;9.138;2022-08-20T08:22:11;2.80;;;2.60;;
13347;SDS011;6743;49.934;9.138;2022-08-20T08:24:41;3.37;;;3.08;;
13347;SDS011;6743;49.934;9.138;2022-08-20T08:27:08;2.72;;;2.50;;
13347;SDS011;6743;49.934;9.138;2022-08-20T08:29:36;3.37;;;2.95;;
13347;SDS011;6743;49.934;9.138;2022-08-20T08:32:03;2.42;;;2.22;;
13347;SDS011;6743;49.934;9.138;2022-08-20T08:34:30;3.37;;;3.08;;
13347;SDS011;6743;49.934;9.138;2022-08-20T08:36:57;3.22;;;2.92;;
13347;SDS011;6743;49.934;9.138;2022-08-20T08:39:26;3.53;;;2.92;;
13347;SDS011;6743;49.934;9.138;2022-08-20T08:41:53;3.10;;;2.70;;
13347;SDS011;6743;49.934;9.138;2022-08-20T08:44:21;3.12;;;2.83;;
13347;SDS011;6743;49.934;9.138;2022-08-20T08:46:52;3.62;;;2.92;;
13347;SDS011;6743;49.934;9.138;2022-08-20T08:49:22;3.22;;;2.92;;
13347;SDS011;6743;49.934;9.138;2022-08-20T08:51:53;3.17;;;2.83;;
13347;SDS011;6743;49.934;9.138;2022-08-20T08:54:25;2.97;;;2.67;;
13347;SDS011;6743;49.934;9.138;2022-08-20T08:56:53;2.60;;;2.40;;
13347;SDS011;6743;49.934;9.138;2022-08-20T08:59:19;2.62;;;2.42;;
13347;SDS011;6743;49.934;9.138;2022-08-20T09:01:48;3.17;;;2.92;;
13347;SDS011;6743;49.934;9.138;2022-08-20T09:04:17;2.50;;;2.30;;
13347;SDS011;6743;49.934;9.138;2022-08-20T09:06:46;2.55;;;2.33;;
13347;SDS011;6743;49.934;9.138;2022-08-20T09:09:15;3.67;;;2.75;;
13347;SDS011;6743;49.934;9.138;2022-08-20T09:11:44;2.67;;;2.47;;
13347;SDS011;6743;49.934;9.138;2022-08-20T09:14:15;2.12;;;1.92;;
13347;SDS011;6743;49.934;9.138;2022-08-20T09:16:41;2.42;;;2.20;;
13347;SDS011;6743;49.934;9.138;2022-08-20T09:19:07;2.40;;;2.20;;
13347;SDS011;6743;49.934;9.138;2022-08-20T09:21:34;2.25;;;2.05;;
13347;SDS011;6743;49.934;9.138;2022-08-20T09:24:00;3.00;;;2.53;;
13347;SDS011;6743;49.934;9.138;2022-08-20T09:26:26;2.55;;;2.30;;
13347;SDS011;6743;49.934;9.138;2022-08-20T09:28:52;2.58;;;2.20;;
13347;SDS011;6743;49.934;9.138;2022-08-20T09:31:18;1.92;;;1.75;;
13347;SDS011;6743;49.934;9.138;2022-08-20T09:33:44;2.40;;;2.20;;
13347;SDS011;6743;49.934;9.138;2022-08-20T09:36:10;2.50;;;2.30;;
13347;SDS011;6743;49.934;9.138;2022-08-20T09:38:37;2.12;;;1.92;;
13347;SDS011;6743;49.934;9.138;2022-08-20T09:41:03;2.15;;;1.90;;
13347;SDS011;6743;49.934;9.138;2022-08-20T09:43:29;2.45;;;2.25;;
13347;SDS011;6743;49.934;9.138;2022-08-20T09:45:55;2.37;;;2.17;;
13347;SDS011;6743;49.934;9.138;2022-08-20T09:48:21;2.60;;;2.40;;
13347;SDS011;6743;49.934;9.138;2022-08-20T09:50:47;2.08;;;1.98;;
13347;SDS011;6743;49.934;9.138;2022-08-20T09:53:14;2.03;;;1.92;;
13347;SDS011;6743;49.934;9.138;2022-08-20T09:55:42;3.00;;;2.65;;
13347;SDS011;6743;49.934;9.138;2022-08-20T09:58:11;2.97;;;2.67;;
13347;SDS011;6743;49.934;9.138;2022-08-20T10:00:43;3.67;;;3.08;;
13347;SDS011;6743;49.934;9.138;2022-08-20T10:03:09;3.25;;;2.87;;
13347;SDS011;6743;49.934;9.138;2022-08-20T10:05:35;2.67;;;2.47;;
13347;SDS011;6743;49.934;9.138;2022-08-20T10:08:03;3.17;;;2.50;;
13347;SDS011;6743;49.934;9.138;2022-08-20T10:10:30;2.62;;;2.42;;
13347;SDS011;6743;49.934;9.138;2022-08-20T10:12:56;2.62;;;2.42;;
13347;SDS011;6743;49.934;9.138;2022-08-20T10:15:22;2.15;;;1.95;;
13347;SDS011;6743;49.934;9.138;2022-08-20T10:17:48;3.10;;;2.80;;
13347;SDS011;6743;49.934;9.138;2022-08-20T10:20:14;3.20;;;2.70;;
13347;SDS011;6743;49.934;9.138;2022-08-20T10:22:42;2.72;;;2.12;;
13347;SDS011;6743;49.934;9.138;2022-08-20T10:25:08;2.62;;;2.42;;
13347;SDS011;6743;49.934;9.138;2022-08-20T10:27:35;2.70;;;2.50;;
13347;SDS011;6743;49.934;9.138;2022-08-20T10:30:02;2.50;;;2.30;;
13347;SDS011;6743;49.934;9.138;2022-08-20T10:32:30;2.50;;;2.30;;
13347;SDS011;6743;49.934;9.138;2022-08-20T10:34:57;2.55;;;2.33;;
13347;SDS011;6743;49.934;9.138;2022-08-20T10:37:23;3.35;;;2.35;;
13347;SDS011;6743;49.934;9.138;2022-08-20T10:39:50;2.40;;;2.20;;
13347;SDS011;6743;49.934;9.138;2022-08-20T10:42:17;2.70;;;2.40;;
13347;SDS011;6743;49.934;9.138;2022-08-20T10:44:43;1.98;;;1.87;;
13347;SDS011;6743;49.934;9.138;2022-08-20T10:47:14;2.37;;;2.10;;
13347;SDS011;6743;49.934;9.138;2022-08-20T10:49:42;2.12;;;2.03;;
13347;SDS011;6743;49.934;9.138;2022-08-20T10:52:08;2.97;;;2.67;;
13347;SDS011;6743;49.934;9.138;2022-08-20T10:54:34;2.53;;;2.33;;
13347;SDS011;6743;49.934;9.138;2022-08-20T10:57:00;2.45;;;2.17;;
13347;SDS011;6743;49.934;9.138;2022-08-20T10:59:27;1.95;;;1.80;;
13347;SDS011;6743;49.934;9.138;2022-08-20T11:01:53;1.10;;;1.10;;
13347;SDS011;6743;49.934;9.138;2022-08-20T11:04:19;1.12;;;1.02;;
13347;SDS011;6743;49.934;9.138;2022-08-20T11:06:46;1.35;;;1.25;;
13347;SDS011;6743;49.934;9.138;2022-08-20T11:09:12;1.05;;;1.05;;
13347;SDS011;6743;49.934;9.138;2022-08-20T11:11:38;0.80;;;0.80;;
13347;SDS011;6743;49.934;9.138;2022-08-20T11:14:04;1.23;;;0.90;;
13347;SDS011;6743;49.934;9.138;2022-08-20T11:16:30;1.15;;;1.15;;
13347;SDS011;6743;49.934;9.138;2022-08-20T11:18:56;1.48;;;1.37;;
13347;SDS011;6743;49.934;9.138;2022-08-20T11:21:22;1.20;;;1.20;;
13347;SDS011;6743;49.934;9.138;2022-08-20T11:23:49;1.40;;;1.33;;
13347;SDS011;6743;49.934;9.138;2022-08-20T11:26:18;1.00;;;1.00;;
13347;SDS011;6743;49.934;9.138;2022-08-20T11:28:48;0.85;;;0.85;;
13347;SDS011;6743;49.934;9.138;2022-08-20T11:31:14;0.80;;;0.80;;
13347;SDS011;6743;49.934;9.138;2022-08-20T11:33:40;1.10;;;1.10;;
13347;SDS011;6743;49.934;9.138;2022-08-20T11:36:06;0.95;;;0.95;;
13347;SDS011;6743;49.934;9.138;2022-08-20T11:38:33;0.70;;;0.70;;
13347;SDS011;6743;49.934;9.138;2022-08-20T11:40:59;0.70;;;0.70;;
13347;SDS011;6743;49.934;9.138;2022-08-20T11:43:25;0.80;;;0.80;;
13347;SDS011;6743;49.934;9.138;2022-08-20T11:45:51;0.80;;;0.80;;
13347;SDS011;6743;49.934;9.138;2022-08-20T11:48:20;1.00;;;1.00;;
13347;SDS011;6743;49.934;9.138;2022-08-20T11:50:46;1.10;;;1.10;;
13347;SDS011;6743;49.934;9.138;2022-08-20T11:53:13;1.15;;;1.12;;
13347;SDS011;6743;49.934;9.138;2022-08-20T11:55:40;1.20;;;1.20;;
13347;SDS011;6743;49.934;9.138;2022-08-20T11:58:08;1.33;;;1.25;;
13347;SDS011;6743;49.934;9.138;2022-08-20T12:00:34;1.00;;;1.00;;
13347;SDS011;6743;49.934;9.138;2022-08-20T12:03:01;1.05;;;1.05;;
13347;SDS011;6743;49.934;9.138;2022-08-20T12:05:29;1.95;;;1.50;;
13347;SDS011;6743;49.934;9.138;2022-08-20T12:07:55;1.35;;;1.35;;
13347;SDS011;6743;49.934;9.138;2022-08-20T12:10:21;1.20;;;1.20;;
13347;SDS011;6743;49.934;9.138;2022-08-20T12:12:51;0.98;;;0.98;;
13347;SDS011;6743;49.934;9.138;2022-08-20T12:15:17;1.17;;;1.17;;
13347;SDS011;6743;49.934;9.138;2022-08-20T12:17:43;1.05;;;1.05;;
13347;SDS011;6743;49.934;9.138;2022-08-20T12:20:10;0.90;;;0.90;;
13347;SDS011;6743;49.934;9.138;2022-08-20T12:22:40;0.90;;;0.90;;
13347;SDS011;6743;49.934;9.138;2022-08-20T12:25:07;0.90;;;0.90;;
13347;SDS011;6743;49.934;9.138;2022-08-20T12:27:36;1.20;;;1.20;;
13347;SDS011;6743;49.934;9.138;2022-08-20T12:30:04;1.10;;;1.10;;
13347;SDS011;6743;49.934;9.138;2022-08-20T12:32:32;0.98;;;0.98;;
13347;SDS011;6743;49.934;9.138;2022-08-20T12:34:59;1.10;;;1.10;;
13347;SDS011;6743;49.934;9.138;2022-08-20T12:37:26;0.90;;;0.90;;
13347;SDS011;6743;49.934;9.138;2022-08-20T12:39:54;1.33;;;1.20;;
13347;SDS011;6743;49.934;9.138;2022-08-20T12:42:23;1.40;;;1.30;;
13347;SDS011;6743;49.934;9.138;2022-08-20T12:44:49;1.00;;;1.00;;
13347;SDS011;6743;49.934;9.138;2022-08-20T12:47:17;1.10;;;1.10;;
13347;SDS011;6743;49.934;9.138;2022-08-20T12:49:46;1.37;;;1.27;;
13347;SDS011;6743;49.934;9.138;2022-08-20T12:52:14;1.00;;;1.00;;
13347;SDS011;6743;49.934;9.138;2022-08-20T12:54:41;1.10;;;1.10;;
13347;SDS011;6743;49.934;9.138;2022-08-20T12:57:14;0.82;;;0.82;;
13347;SDS011;6743;49.934;9.138;2022-08-20T12:59:41;0.77;;;0.77;;
13347;SDS011;6743;49.934;9.138;2022-08-20T13:02:07;0.88;;;0.88;;
13347;SDS011;6743;49.934;9.138;2022-08-20T13:04:36;1.20;;;1.20;;
13347;SDS011;6743;49.934;9.138;2022-08-20T13:07:02;0.98;;;0.98;;
13347;SDS011;6743;49.934;9.138;2022-08-20T13:09:28;1.10;;;1.10;;
13347;SDS011;6743;49.934;9.138;2022-08-20T13:11:55;0.80;;;0.80;;
13347;SDS011;6743;49.934;9.138;2022-08-20T13:14:21;1.05;;;1.05;;
13347;SDS011;6743;49.934;9.138;2022-08-20T13:16:52;0.70;;;0.70;;
13347;SDS011;6743;49.934;9.138;2022-08-20T13:19:19;0.73;;;0.73;;
13347;SDS011;6743;49.934;9.138;2022-08-20T13:21:46;0.80;;;0.80;;
13347;SDS011;6743;49.934;9.138;2022-08-20T13:24:12;0.95;;;0.95;;
13347;SDS011;6743;49.934;9.138;2022-08-20T13:26:38;1.00;;;1.00;;
13347;SDS011;6743;49.934;9.138;2022-08-20T13:29:04;0.80;;;0.80;;
13347;SDS011;6743;49.934;9.138;2022-08-20T13:31:30;1.00;;;1.00;;
13347;SDS011;6743;49.934;9.138;2022-08-20T13:33:56;1.00;;;1.00;;
13347;SDS011;6743;49.934;9.138;2022-08-20T13:36:22;0.70;;;0.70;;
13347;SDS011;6743;49.934;9.138;2022-08-20T13:38:49;0.90;;;0.90;;
13347;SDS011;6743;49.934;9.138;2022-08-20T13:41:15;1.37;;;1.08;;
13347;SDS011;6743;49.934;9.138;2022-08-20T13:43:41;0.80;;;0.80;;
13347;SDS011;6743;49.934;9.138;2022-08-20T13:46:07;0.57;;;0.57;;
13347;SDS011;6743;49.934;9.138;2022-08-20T13:48:33;0.57;;;0.57;;
13347;SDS011;6743;49.934;9.138;2022-08-20T13:50:59;0.98;;;0.98;;
13347;SDS011;6743;49.934;9.138;2022-08-20T13:53:25;0.60;;;0.60;;
13347;SDS011;6743;49.934;9.138;2022-08-20T13:55:52;0.80;;;0.57;;
13347;SDS011;6743;49.934;9.138;2022-08-20T13:58:18;0.68;;;0.68;;
13347;SDS011;6743;49.934;9.138;2022-08-20T14:00:46;1.00;;;0.95;;
13347;SDS011;6743;49.934;9.138;2022-08-20T14:03:13;0.98;;;0.98;;
13347;SDS011;6743;49.934;9.138;2022-08-20T14:05:39;0.77;;;0.77;;
13347;SDS011;6743;49.934;9.138;2022-08-20T14:08:06;0.77;;;0.77;;
13347;SDS011;6743;49.934;9.138;2022-08-20T14:10:34;1.10;;;1.10;;
13347;SDS011;6743;49.934;9.138;2022-08-20T14:13:01;0.73;;;0.73;;
13347;SDS011;6743;49.934;9.138;2022-08-20T14:15:28;0.40;;;0.40;;
13347;SDS011;6743;49.934;9.138;2022-08-20T14:17:54;0.85;;;0.85;;
13347;SDS011;6743;49.934;9.138;2022-08-20T14:20:22;0.60;;;0.60;;
13347;SDS011;6743;49.934;9.138;2022-08-20T14:22:49;0.77;;;0.77;;
13347;SDS011;6743;49.934;9.138;2022-08-20T14:25:16;0.62;;;0.62;;
13347;SDS011;6743;49.934;9.138;2022-08-20T14:27:43;0.60;;;0.60;;
13347;SDS011;6743;49.934;9.138;2022-08-20T14:30:11;0.77;;;0.77;;
13347;SDS011;6743;49.934;9.138;2022-08-20T14:32:39;0.60;;;0.60;;
13347;SDS011;6743;49.934;9.138;2022-08-20T14:35:06;0.50;;;0.50;;
13347;SDS011;6743;49.934;9.138;2022-08-20T14:37:33;0.32;;;0.32;;
13347;SDS011;6743;49.934;9.138;2022-08-20T14:40:03;0.60;;;0.60;;
13347;SDS011;6743;49.934;9.138;2022-08-20T14:42:31;0.47;;;0.47;;
13347;SDS011;6743;49.934;9.138;2022-08-20T14:44:57;0.50;;;0.50;;
13347;SDS011;6743;49.934;9.138;2022-08-20T14:47:27;0.60;;;0.60;;
13347;SDS011;6743;49.934;9.138;2022-08-20T14:49:56;0.57;;;0.40;;
13347;SDS011;6743;49.934;9.138;2022-08-20T14:52:25;0.60;;;0.60;;
13347;SDS011;6743;49.934;9.138;2022-08-20T14:54:52;0.50;;;0.50;;
13347;SDS011;6743;49.934;9.138;2022-08-20T14:57:18;0.43;;;0.43;;
13347;SDS011;6743;49.934;9.138;2022-08-20T14:59:45;0.50;;;0.50;;
13347;SDS011;6743;49.934;9.138;2022-08-20T15:02:12;0.20;;;0.20;;